Time;durP1;ratioP1;P1;durP2;ratioP2;P2;SDS_P1;SDS_P2;PMS_P1;PMS_P2;Temp;Humidity;BMP_temperature;BMP_pressure;BME280_temperature;BME280_humidity;BME280_pressure;Samples;Min_cycle;Max_cycle;Signal;HPM_P1;HPM_P2
2022/10/20 00:01:24;;;;;;;6.75;4.00;;;11.70;78.90;;;;;;5099739;28;20023;-87
2022/10/20 00:03:51;;;;;;;6.90;3.90;;;11.70;79.00;;;;;;5119789;27;20044;-90
2022/10/20 00:06:28;;;;;;;6.65;3.63;;;11.70;79.10;;;;;;5085454;27;20082;-89
2022/10/20 00:08:56;;;;;;;9.98;4.32;;;11.70;79.00;;;;;;5120594;27;20023;-90
2022/10/20 00:11:23;;;;;;;9.85;4.53;;;11.70;79.00;;;;;;5119959;27;20027;-89
2022/10/20 00:13:53;;;;;;;7.03;4.07;;;11.60;79.10;;;;;;5121589;27;20102;-90
2022/10/20 00:16:20;;;;;;;6.60;3.92;;;11.60;79.20;;;;;;5122401;27;20200;-89
2022/10/20 00:18:46;;;;;;;7.78;4.15;;;11.60;79.30;;;;;;5084326;27;20484;-89
2022/10/20 00:21:16;;;;;;;8.48;4.40;;;11.60;80.20;;;;;;5104925;27;20019;-88
2022/10/20 00:23:43;;;;;;;5.72;3.58;;;11.60;79.20;;;;;;5122510;28;20106;-90
2022/10/20 00:26:17;;;;;;;8.85;4.35;;;11.50;79.30;;;;;;5121813;27;20027;-90
2022/10/20 00:28:43;;;;;;;9.30;4.10;;;11.50;80.30;;;;;;5121534;27;20027;-86
2022/10/20 00:31:11;;;;;;;8.98;4.50;;;11.50;79.80;;;;;;5120296;27;20034;-87
2022/10/20 00:33:36;;;;;;;8.00;4.20;;;11.40;79.80;;;;;;5118296;27;20472;-87
2022/10/20 00:36:04;;;;;;;7.55;4.10;;;11.50;79.80;;;;;;5085128;27;20105;-86
2022/10/20 00:38:31;;;;;;;7.95;3.97;;;11.60;79.80;;;;;;5102817;27;20031;-87
2022/10/20 00:40:58;;;;;;;6.95;4.30;;;11.60;79.60;;;;;;5103572;27;20023;-87
2022/10/20 00:43:54;;;;;;;8.77;4.60;;;11.60;79.40;;;;;;5085254;27;20027;-87
2022/10/20 00:46:23;;;;;;;10.98;4.15;;;11.60;79.30;;;;;;5117782;27;20023;-86
2022/10/20 00:48:56;;;;;;;9.35;4.55;;;11.60;79.30;;;;;;5120894;27;20468;-87
2022/10/20 00:51:26;;;;;;;6.20;3.75;;;11.60;79.60;;;;;;5118689;27;20114;-87
2022/10/20 00:53:58;;;;;;;9.00;4.65;;;11.50;79.50;;;;;;5136433;27;20029;-87
2022/10/20 00:56:25;;;;;;;9.18;4.28;;;11.50;79.70;;;;;;5118136;27;20080;-86
2022/10/20 00:58:51;;;;;;;9.13;4.22;;;11.40;80.00;;;;;;5101775;27;20066;-86
2022/10/20 01:01:17;;;;;;;8.27;4.93;;;11.40;80.20;;;;;;5086560;27;20376;-85
2022/10/20 01:03:47;;;;;;;9.63;4.60;;;11.40;80.30;;;;;;5102640;27;20050;-87
2022/10/20 01:06:16;;;;;;;13.50;4.82;;;11.40;80.20;;;;;;5121334;27;20034;-86
2022/10/20 01:08:42;;;;;;;8.30;4.35;;;11.40;80.40;;;;;;5121980;27;20031;-86
2022/10/20 01:11:17;;;;;;;7.32;4.07;;;11.30;80.50;;;;;;5087034;27;20023;-86
2022/10/20 01:13:50;;;;;;;8.25;4.20;;;11.40;80.30;;;;;;5139983;27;20054;-90
2022/10/20 01:16:34;;;;;;;8.57;4.75;;;11.40;80.20;;;;;;5120561;27;20468;-86
2022/10/20 01:19:20;;;;;;;9.35;4.18;;;11.40;80.40;;;;;;5120285;27;20098;-86
2022/10/20 01:22:14;;;;;;;9.95;4.18;;;11.40;80.10;;;;;;5119935;27;20126;-89
2022/10/20 01:24:53;;;;;;;10.18;4.50;;;11.40;80.10;;;;;;5120775;27;20492;-89
2022/10/20 01:27:28;;;;;;;7.70;4.47;;;11.40;80.30;;;;;;5118840;27;20144;-88
2022/10/20 01:30:06;;;;;;;8.05;4.60;;;11.40;80.20;;;;;;5120382;27;20027;-88
2022/10/20 01:32:51;;;;;;;11.00;4.97;;;11.30;80.40;;;;;;5120114;27;20025;-86
2022/10/20 01:35:38;;;;;;;8.10;4.47;;;11.40;80.40;;;;;;5118526;27;20495;-86
2022/10/20 01:38:19;;;;;;;13.73;4.47;;;11.30;80.40;;;;;;5121240;27;20126;-86
2022/10/20 01:41:08;;;;;;;8.48;5.10;;;11.20;80.60;;;;;;5118770;27;20026;-86
2022/10/20 01:43:37;;;;;;;8.70;5.18;;;11.20;80.90;;;;;;5120855;27;20034;-88
2022/10/20 01:46:05;;;;;;;13.57;5.75;;;11.20;81.20;;;;;;5138354;27;20022;-88
2022/10/20 01:48:36;;;;;;;9.55;5.25;;;11.20;81.10;;;;;;5104575;27;20039;-86
2022/10/20 01:51:03;;;;;;;11.65;5.10;;;11.20;81.10;;;;;;5104682;27;20031;-87
2022/10/20 01:53:29;;;;;;;10.95;5.32;;;11.20;81.20;;;;;;5118776;27;20111;-86
2022/10/20 01:56:00;;;;;;;11.57;5.38;;;11.20;81.40;;;;;;5119430;27;20031;-86
2022/10/20 01:58:57;;;;;;;9.50;5.38;;;11.20;81.20;;;;;;5118364;27;20035;-86
2022/10/20 02:02:01;;;;;;;13.40;5.90;;;11.20;81.30;;;;;;5118690;27;20015;-87
2022/10/20 02:04:56;;;;;;;10.40;5.25;;;11.30;81.30;;;;;;5122050;27;20525;-88
2022/10/20 02:07:31;;;;;;;13.18;5.20;;;11.30;81.40;;;;;;5091269;27;20027;-87
2022/10/20 02:10:23;;;;;;;9.40;5.43;;;11.30;81.40;;;;;;5117935;27;20011;-87
2022/10/20 02:12:56;;;;;;;9.40;5.13;;;11.30;81.40;;;;;;5119067;27;20027;-87
2022/10/20 02:15:25;;;;;;;9.80;5.38;;;11.20;81.50;;;;;;5118399;27;20030;-86
2022/10/20 02:17:56;;;;;;;9.82;5.20;;;11.20;81.70;;;;;;5118989;27;20033;-86
2022/10/20 02:20:23;;;;;;;10.25;4.85;;;11.20;81.70;;;;;;5119054;27;20690;-89
2022/10/20 02:22:51;;;;;;;11.27;5.32;;;11.20;81.70;;;;;;5103137;27;20038;-90
2022/10/20 02:25:19;;;;;;;10.98;5.30;;;11.30;81.90;;;;;;5103684;28;20114;-89
2022/10/20 02:27:46;;;;;;;13.07;5.57;;;11.20;82.20;;;;;;5102371;28;20031;-87
2022/10/20 02:30:16;;;;;;;12.43;5.90;;;11.20;82.20;;;;;;5116344;28;20023;-87
2022/10/20 02:32:43;;;;;;;10.88;6.10;;;11.20;82.40;;;;;;5117533;28;20011;-88
2022/10/20 02:35:18;;;;;;;11.02;6.13;;;11.20;82.40;;;;;;5120450;28;20015;-87
2022/10/20 02:37:44;;;;;;;13.18;5.80;;;11.20;82.40;;;;;;5119521;28;20030;-88
2022/10/20 02:40:10;;;;;;;10.77;5.38;;;11.20;82.30;;;;;;5099287;28;20417;-89
2022/10/20 02:42:37;;;;;;;10.88;5.55;;;11.30;82.30;;;;;;5101388;28;20027;-88
2022/10/20 02:45:07;;;;;;;12.52;5.28;;;11.20;82.20;;;;;;5087644;28;20111;-89
2022/10/20 02:47:33;;;;;;;10.50;5.90;;;11.30;82.20;;;;;;5084779;27;20062;-87
2022/10/20 02:50:00;;;;;;;10.88;5.50;;;11.30;82.10;;;;;;5105020;27;20080;-88
2022/10/20 02:52:26;;;;;;;11.38;5.90;;;11.30;82.20;;;;;;5105455;27;20127;-87
2022/10/20 02:54:52;;;;;;;11.88;5.53;;;11.30;82.20;;;;;;5107483;27;20059;-88
2022/10/20 02:57:18;;;;;;;11.95;5.93;;;11.30;82.20;;;;;;5091137;27;20034;-87
2022/10/20 02:59:46;;;;;;;11.38;5.47;;;11.40;82.40;;;;;;5090949;27;20039;-87
2022/10/20 03:02:12;;;;;;;11.43;5.45;;;11.30;82.30;;;;;;5088023;27;20020;-87
2022/10/20 03:04:40;;;;;;;11.02;5.82;;;11.30;82.50;;;;;;5088756;27;20074;-85
2022/10/20 03:07:06;;;;;;;12.40;6.15;;;11.30;82.40;;;;;;5107526;27;20031;-87
2022/10/20 03:09:32;;;;;;;12.18;6.05;;;11.30;82.40;;;;;;5091791;27;20042;-87
2022/10/20 03:11:58;;;;;;;13.88;6.10;;;11.30;82.50;;;;;;5124071;27;20507;-87
2022/10/20 03:14:24;;;;;;;11.88;5.53;;;11.30;82.60;;;;;;5090258;27;20023;-89
2022/10/20 03:16:53;;;;;;;9.30;5.35;;;11.20;82.60;;;;;;5107464;27;20007;-90
2022/10/20 03:19:21;;;;;;;13.98;5.75;;;11.20;83.00;;;;;;5108734;27;20027;-87
2022/10/20 03:21:48;;;;;;;12.90;6.43;;;11.20;83.00;;;;;;5107263;27;20024;-87
2022/10/20 03:24:17;;;;;;;12.20;6.18;;;11.20;83.00;;;;;;5124578;27;20046;-85
2022/10/20 03:26:46;;;;;;;10.82;5.80;;;11.20;83.20;;;;;;5106503;27;20015;-86
2022/10/20 03:29:11;;;;;;;15.02;6.57;;;11.10;83.40;;;;;;5108192;27;20095;-89
2022/10/20 03:31:37;;;;;;;11.60;5.95;;;11.10;84.40;;;;;;5088445;27;20103;-87
2022/10/20 03:34:03;;;;;;;10.30;5.65;;;11.10;83.60;;;;;;5102700;27;20219;-86
2022/10/20 03:36:28;;;;;;;13.68;6.80;;;11.10;83.80;;;;;;5088638;27;20480;-87
2022/10/20 03:38:54;;;;;;;10.32;5.60;;;11.10;84.10;;;;;;5090049;27;20046;-86
2022/10/20 03:41:20;;;;;;;11.90;6.50;;;11.10;83.90;;;;;;5087873;27;20614;-87
2022/10/20 03:43:45;;;;;;;17.52;6.43;;;11.10;84.10;;;;;;5085529;27;20029;-87
2022/10/20 03:46:11;;;;;;;13.25;6.13;;;11.10;84.30;;;;;;5087454;27;20019;-86
2022/10/20 03:48:39;;;;;;;11.60;6.63;;;11.10;84.20;;;;;;5090374;27;20027;-89
2022/10/20 03:51:06;;;;;;;11.90;6.53;;;11.10;84.20;;;;;;5120716;27;20015;-87
2022/10/20 03:53:31;;;;;;;13.55;6.40;;;11.10;84.20;;;;;;5121816;27;20027;-87
2022/10/20 03:55:57;;;;;;;15.25;7.07;;;11.10;84.10;;;;;;5103898;27;20063;-87
2022/10/20 03:58:23;;;;;;;16.25;7.00;;;11.20;84.20;;;;;;5102428;27;20062;-86
2022/10/20 04:00:49;;;;;;;15.02;6.95;;;11.20;84.90;;;;;;5084702;27;20547;-86
2022/10/20 04:03:15;;;;;;;12.23;6.53;;;11.20;84.20;;;;;;5085045;27;20376;-86
2022/10/20 04:05:40;;;;;;;14.93;6.30;;;11.20;84.30;;;;;;5120631;27;20054;-87
2022/10/20 04:08:06;;;;;;;12.57;6.65;;;11.10;84.50;;;;;;5101521;27;20047;-87
2022/10/20 04:10:32;;;;;;;13.05;6.35;;;11.20;84.70;;;;;;5119298;27;20027;-86
2022/10/20 04:13:02;;;;;;;14.10;6.43;;;11.20;85.00;;;;;;5105560;27;20034;-86
2022/10/20 04:15:27;;;;;;;15.38;6.40;;;11.20;84.90;;;;;;5105411;27;20802;-86
2022/10/20 04:17:53;;;;;;;13.27;6.45;;;11.20;84.80;;;;;;5106207;27;20066;-90
2022/10/20 04:20:19;;;;;;;12.77;6.32;;;11.20;84.80;;;;;;5090650;27;20055;-86
2022/10/20 04:22:45;;;;;;;13.77;6.28;;;11.20;85.10;;;;;;5105445;27;20016;-87
2022/10/20 04:25:11;;;;;;;13.60;6.90;;;11.20;85.10;;;;;;5087503;27;20035;-89
2022/10/20 04:27:39;;;;;;;14.57;6.93;;;11.20;85.10;;;;;;5088751;27;20069;-89
2022/10/20 04:30:05;;;;;;;11.57;6.03;;;11.20;85.30;;;;;;5121328;27;20035;-89
2022/10/20 04:32:31;;;;;;;14.88;6.07;;;11.20;85.10;;;;;;5104015;27;20133;-86
2022/10/20 04:34:57;;;;;;;12.15;6.35;;;11.30;85.20;;;;;;5107135;27;20049;-88
2022/10/20 04:37:24;;;;;;;12.30;7.18;;;11.30;85.20;;;;;;5104666;27;20035;-89
2022/10/20 04:39:50;;;;;;;12.95;6.15;;;11.30;85.20;;;;;;5106461;27;20031;-88
2022/10/20 04:42:16;;;;;;;12.13;6.88;;;11.30;85.20;;;;;;5103566;27;20129;-89
2022/10/20 04:44:42;;;;;;;16.52;6.45;;;11.30;85.10;;;;;;5118903;27;20019;-88
2022/10/20 04:47:08;;;;;;;11.43;5.78;;;11.40;85.10;;;;;;5117734;27;20044;-89
2022/10/20 04:49:39;;;;;;;14.30;6.80;;;11.40;85.20;;;;;;5118131;27;20114;-89
2022/10/20 04:52:05;;;;;;;15.20;6.32;;;11.40;85.10;;;;;;5102344;27;20042;-89
2022/10/20 04:54:30;;;;;;;11.80;6.22;;;11.40;85.10;;;;;;5087999;27;20027;-87
2022/10/20 04:56:57;;;;;;;12.43;6.07;;;11.40;85.00;;;;;;5104898;27;20365;-85
2022/10/20 04:59:23;;;;;;;12.30;6.65;;;11.40;85.20;;;;;;5101207;27;20031;-89
2022/10/20 05:01:49;;;;;;;12.00;6.57;;;11.40;85.10;;;;;;5101944;27;20027;-89
2022/10/20 05:04:20;;;;;;;12.23;6.45;;;11.40;85.00;;;;;;5083471;28;20055;-86
2022/10/20 05:06:46;;;;;;;13.20;6.57;;;11.50;85.00;;;;;;5081487;28;20035;-89
2022/10/20 05:09:14;;;;;;;14.00;6.50;;;11.50;85.10;;;;;;5097267;28;20070;-87
2022/10/20 05:11:40;;;;;;;13.65;6.43;;;11.50;85.20;;;;;;5118234;28;20029;-86
2022/10/20 05:14:06;;;;;;;11.57;6.25;;;11.50;85.10;;;;;;5114258;28;20024;-86
2022/10/20 05:16:33;;;;;;;13.10;6.25;;;11.50;85.10;;;;;;5113304;28;20023;-87
2022/10/20 05:18:59;;;;;;;14.02;6.47;;;11.60;85.00;;;;;;5079039;28;20056;-85
2022/10/20 05:21:27;;;;;;;11.23;6.28;;;11.60;84.90;;;;;;5081245;28;20253;-84
2022/10/20 05:24:02;;;;;;;12.75;6.45;;;11.60;85.10;;;;;;5096998;28;20426;-86
2022/10/20 05:26:33;;;;;;;13.60;6.47;;;11.50;85.20;;;;;;5092739;28;20021;-87
2022/10/20 05:28:59;;;;;;;12.27;6.28;;;11.50;85.20;;;;;;5093792;28;20028;-86
2022/10/20 05:31:25;;;;;;;11.38;5.90;;;11.60;86.10;;;;;;5076629;28;20024;-87
2022/10/20 05:33:55;;;;;;;13.45;6.47;;;11.60;85.10;;;;;;5092922;28;20036;-87
2022/10/20 05:36:23;;;;;;;11.48;6.40;;;11.60;85.40;;;;;;5092800;28;20489;-87
2022/10/20 05:38:51;;;;;;;10.98;6.03;;;11.60;85.50;;;;;;5093887;28;20025;-87
2022/10/20 05:41:19;;;;;;;12.68;6.03;;;11.60;85.60;;;;;;5092844;28;20444;-88
2022/10/20 05:43:49;;;;;;;13.20;6.30;;;11.60;85.70;;;;;;5093688;28;20020;-86
2022/10/20 05:46:17;;;;;;;12.40;6.10;;;11.60;85.70;;;;;;5060144;28;20024;-87
2022/10/20 05:48:45;;;;;;;15.02;6.28;;;11.60;85.60;;;;;;5095440;28;20024;-87
2022/10/20 05:51:17;;;;;;;14.52;6.30;;;11.60;85.40;;;;;;5061985;28;20119;-86
2022/10/20 05:53:44;;;;;;;11.68;6.32;;;11.70;85.40;;;;;;5091944;28;20032;-87
2022/10/20 05:56:12;;;;;;;12.77;7.22;;;11.70;85.40;;;;;;5091213;28;20477;-87
2022/10/20 05:58:39;;;;;;;12.10;6.40;;;11.60;85.40;;;;;;5091467;28;20086;-87
2022/10/20 06:01:07;;;;;;;12.52;6.53;;;11.60;85.60;;;;;;5074899;28;20031;-87
2022/10/20 06:03:32;;;;;;;12.80;6.28;;;11.60;85.50;;;;;;5075693;28;20122;-87
2022/10/20 06:05:59;;;;;;;11.57;6.47;;;11.70;85.50;;;;;;5093588;28;20528;-87
2022/10/20 06:08:27;;;;;;;11.88;6.10;;;11.70;85.50;;;;;;5075679;28;20028;-87
2022/10/20 06:10:53;;;;;;;13.27;6.70;;;11.80;85.40;;;;;;5078814;28;20012;-88
2022/10/20 06:13:19;;;;;;;14.40;6.75;;;11.80;85.20;;;;;;5060844;28;20032;-86
2022/10/20 06:15:46;;;;;;;11.48;5.65;;;11.80;85.30;;;;;;5058272;28;20032;-86
2022/10/20 06:18:13;;;;;;;14.43;6.55;;;11.80;85.30;;;;;;5091701;28;20413;-87
2022/10/20 06:20:39;;;;;;;12.02;6.13;;;11.80;85.20;;;;;;5058166;28;20047;-85
2022/10/20 06:23:05;;;;;;;12.95;6.35;;;11.80;85.20;;;;;;5090809;28;20111;-87
2022/10/20 06:25:30;;;;;;;11.23;6.15;;;11.80;85.50;;;;;;5058612;28;20027;-87
2022/10/20 06:27:56;;;;;;;12.38;6.90;;;11.80;85.50;;;;;;5057981;28;20055;-87
2022/10/20 06:30:21;;;;;;;13.02;6.68;;;11.80;85.50;;;;;;5057845;28;20012;-87
2022/10/20 06:32:51;;;;;;;10.85;5.95;;;11.90;85.80;;;;;;5057818;28;20489;-87
2022/10/20 06:35:17;;;;;;;14.38;6.68;;;11.90;85.70;;;;;;5075033;28;20016;-87
2022/10/20 06:37:43;;;;;;;12.07;6.72;;;11.90;85.80;;;;;;5091448;28;20627;-88
2022/10/20 06:40:09;;;;;;;12.30;6.10;;;12.00;85.70;;;;;;5074847;28;20028;-86
2022/10/20 06:42:34;;;;;;;13.00;6.57;;;12.00;86.00;;;;;;5075341;28;20028;-86
2022/10/20 06:45:00;;;;;;;11.38;6.72;;;12.00;85.90;;;;;;5057260;28;20096;-86
2022/10/20 06:47:29;;;;;;;13.82;6.35;;;12.00;86.20;;;;;;5057951;28;20478;-88
2022/10/20 06:49:54;;;;;;;13.25;6.45;;;12.10;86.00;;;;;;5074785;28;20040;-87
2022/10/20 06:52:20;;;;;;;15.38;7.55;;;12.20;86.20;;;;;;5057984;28;20097;-88
2022/10/20 06:54:45;;;;;;;13.02;6.15;;;12.30;86.40;;;;;;5058085;28;20044;-86
2022/10/20 06:57:14;;;;;;;10.65;6.18;;;12.20;86.20;;;;;;5075378;28;20032;-86
2022/10/20 06:59:39;;;;;;;12.60;6.88;;;12.30;86.20;;;;;;5077893;28;20050;-87
2022/10/20 07:02:05;;;;;;;13.75;6.28;;;12.30;86.30;;;;;;5074985;28;20020;-87
2022/10/20 07:04:31;;;;;;;13.90;7.03;;;12.40;86.20;;;;;;5074456;28;20052;-85
2022/10/20 07:06:56;;;;;;;14.50;7.22;;;12.40;86.00;;;;;;5075609;28;20485;-86
2022/10/20 07:09:22;;;;;;;13.02;6.18;;;12.40;86.00;;;;;;5057566;28;20032;-87
2022/10/20 07:11:52;;;;;;;13.10;6.50;;;12.40;85.90;;;;;;5057916;28;20031;-86
2022/10/20 07:14:17;;;;;;;12.90;6.65;;;12.40;86.00;;;;;;5076083;28;20494;-86
2022/10/20 07:16:43;;;;;;;10.13;5.68;;;12.40;86.00;;;;;;5057807;28;20240;-86
2022/10/20 07:19:09;;;;;;;11.18;5.97;;;12.50;86.00;;;;;;5075466;28;20055;-87
2022/10/20 07:21:35;;;;;;;13.05;6.45;;;12.50;86.00;;;;;;5073782;28;20020;-87
2022/10/20 07:24:02;;;;;;;11.90;6.43;;;12.50;85.90;;;;;;5090842;28;20363;-88
2022/10/20 07:26:30;;;;;;;12.30;6.32;;;12.60;85.80;;;;;;5090834;28;20477;-87
2022/10/20 07:28:57;;;;;;;11.73;6.40;;;12.60;85.80;;;;;;5091325;28;20030;-86
2022/10/20 07:31:29;;;;;;;15.63;5.65;;;12.60;85.70;;;;;;5074625;28;20504;-87
2022/10/20 07:33:57;;;;;;;11.73;6.30;;;12.60;85.60;;;;;;5092286;28;20051;-86
2022/10/20 07:36:28;;;;;;;12.77;6.53;;;12.70;85.60;;;;;;5078286;28;20508;-86
2022/10/20 07:38:56;;;;;;;12.95;6.50;;;12.70;85.40;;;;;;5094524;28;20063;-86
2022/10/20 07:41:24;;;;;;;16.05;7.70;;;12.70;85.40;;;;;;5094926;28;20481;-86
2022/10/20 07:43:50;;;;;;;12.45;6.13;;;12.80;85.50;;;;;;5094060;28;20107;-86
2022/10/20 07:46:16;;;;;;;13.05;6.93;;;12.80;85.40;;;;;;5094488;28;20016;-86
2022/10/20 07:48:42;;;;;;;13.00;5.97;;;12.80;85.40;;;;;;5094888;28;20020;-87
2022/10/20 07:51:16;;;;;;;10.88;6.15;;;12.80;85.60;;;;;;5078406;28;20114;-86
2022/10/20 07:53:42;;;;;;;10.52;6.45;;;12.80;85.40;;;;;;5095703;28;20024;-87
2022/10/20 07:56:09;;;;;;;13.07;6.45;;;12.80;85.50;;;;;;5077533;28;20108;-87
2022/10/20 07:58:35;;;;;;;11.75;6.65;;;12.90;85.50;;;;;;5094144;28;20032;-86
2022/10/20 08:01:01;;;;;;;15.30;6.25;;;12.90;85.40;;;;;;5077103;28;20032;-87
2022/10/20 08:03:26;;;;;;;14.63;6.68;;;12.90;86.20;;;;;;5061517;28;20027;-87
2022/10/20 08:05:52;;;;;;;13.98;6.70;;;12.90;85.40;;;;;;5076904;28;20044;-86
2022/10/20 08:08:17;;;;;;;12.35;6.78;;;12.90;85.30;;;;;;5077191;28;20020;-86
2022/10/20 08:10:43;;;;;;;11.82;6.32;;;12.90;85.30;;;;;;5061277;28;20463;-86
2022/10/20 08:13:09;;;;;;;19.42;6.80;;;13.00;85.50;;;;;;5076693;28;20374;-86
2022/10/20 08:15:35;;;;;;;10.48;6.60;;;13.00;85.40;;;;;;5060185;28;20066;-86
2022/10/20 08:18:01;;;;;;;11.63;6.50;;;13.00;85.40;;;;;;5060079;28;20111;-85
2022/10/20 08:20:26;;;;;;;11.48;6.70;;;13.10;85.30;;;;;;5076658;28;20074;-86
2022/10/20 08:22:52;;;;;;;14.07;7.13;;;13.10;85.30;;;;;;5076803;28;20496;-86
2022/10/20 08:25:18;;;;;;;13.80;7.30;;;13.10;85.40;;;;;;5063311;28;20028;-87
2022/10/20 08:27:44;;;;;;;13.85;6.88;;;13.10;85.20;;;;;;5061451;28;20034;-85
2022/10/20 08:30:10;;;;;;;14.23;7.38;;;13.20;85.10;;;;;;5060144;28;20024;-86
2022/10/20 08:32:36;;;;;;;14.68;7.47;;;13.30;85.00;;;;;;5093447;28;20374;-86
2022/10/20 08:35:02;;;;;;;16.52;7.07;;;13.30;85.10;;;;;;5059239;28;20028;-87
2022/10/20 08:37:31;;;;;;;12.82;7.03;;;13.30;85.50;;;;;;5077180;28;20054;-86
2022/10/20 08:39:57;;;;;;;14.18;7.10;;;13.30;85.60;;;;;;5076387;28;20663;-86
2022/10/20 08:42:23;;;;;;;14.23;6.93;;;13.40;85.60;;;;;;5060054;28;20481;-87
2022/10/20 08:44:49;;;;;;;15.07;8.02;;;13.50;85.00;;;;;;5059250;28;20512;-87
2022/10/20 08:47:31;;;;;;;14.13;7.22;;;13.50;85.30;;;;;;5093020;28;20382;-87
2022/10/20 08:49:58;;;;;;;13.07;7.28;;;13.60;84.80;;;;;;5092805;28;20024;-86
2022/10/20 08:52:25;;;;;;;12.10;6.90;;;13.60;85.00;;;;;;5075651;28;20452;-85
2022/10/20 08:54:56;;;;;;;14.10;7.68;;;13.70;84.50;;;;;;5075948;28;20016;-86
2022/10/20 08:57:28;;;;;;;12.77;7.43;;;13.70;84.60;;;;;;5092641;28;20024;-86
2022/10/20 08:59:57;;;;;;;13.60;7.80;;;13.80;84.40;;;;;;5092767;28;20432;-86
2022/10/20 09:02:23;;;;;;;12.40;7.60;;;13.80;84.80;;;;;;5094121;28;20381;-85
2022/10/20 09:04:51;;;;;;;14.82;7.53;;;13.80;84.40;;;;;;5075813;28;20049;-85
2022/10/20 09:07:31;;;;;;;13.40;8.15;;;13.80;84.40;;;;;;5093635;28;20029;-86
2022/10/20 09:10:25;;;;;;;15.02;7.68;;;13.90;84.20;;;;;;5092276;28;20038;-86
2022/10/20 09:12:51;;;;;;;15.98;7.38;;;13.90;84.20;;;;;;5083179;28;20489;-86
2022/10/20 09:15:19;;;;;;;15.50;8.07;;;13.90;83.90;;;;;;5075476;28;20020;-86
2022/10/20 09:18:08;;;;;;;12.75;7.68;;;13.90;84.10;;;;;;5092738;28;20020;-86
2022/10/20 09:20:43;;;;;;;14.20;7.60;;;14.00;84.40;;;;;;5092961;28;20108;-85
2022/10/20 09:23:18;;;;;;;15.85;7.80;;;14.00;84.30;;;;;;5092082;28;20506;-85
2022/10/20 09:25:44;;;;;;;14.18;7.15;;;14.00;84.20;;;;;;5091817;28;20124;-86
2022/10/20 09:28:25;;;;;;;12.55;7.28;;;14.10;84.50;;;;;;5075168;28;20489;-85
2022/10/20 09:30:53;;;;;;;17.73;7.82;;;14.10;84.60;;;;;;5093415;28;20020;-86
2022/10/20 09:33:30;;;;;;;16.13;7.53;;;14.10;84.70;;;;;;5091966;28;20500;-86
2022/10/20 09:36:10;;;;;;;16.48;8.00;;;14.10;84.40;;;;;;5092490;28;20477;-86
2022/10/20 09:38:40;;;;;;;14.00;7.53;;;14.10;84.20;;;;;;5094388;28;20470;-86
2022/10/20 09:41:20;;;;;;;16.58;7.65;;;14.20;84.20;;;;;;5076364;28;20020;-86
2022/10/20 09:44:00;;;;;;;12.07;7.15;;;14.20;83.90;;;;;;5091729;28;20047;-86
2022/10/20 09:46:35;;;;;;;15.10;7.93;;;14.30;83.60;;;;;;5091644;28;20499;-86
2022/10/20 09:49:21;;;;;;;15.07;7.38;;;14.30;83.80;;;;;;5091745;28;20027;-86
2022/10/20 09:51:47;;;;;;;16.45;7.28;;;14.30;83.60;;;;;;5091972;28;20548;-86
2022/10/20 09:54:18;;;;;;;14.88;7.25;;;14.30;84.70;;;;;;5074977;28;20504;-86
2022/10/20 09:56:45;;;;;;;15.93;7.85;;;14.30;83.90;;;;;;5091870;28;20032;-86
2022/10/20 09:59:49;;;;;;;16.55;8.60;;;14.40;84.50;;;;;;5074618;28;20111;-85
2022/10/20 10:02:14;;;;;;;18.17;7.93;;;14.40;84.20;;;;;;4993815;28;20034;-86
2022/10/20 10:04:43;;;;;;;15.30;8.05;;;14.40;84.20;;;;;;5072059;28;20169;-86
2022/10/20 10:07:20;;;;;;;15.32;8.32;;;14.50;84.50;;;;;;5091869;28;20119;-86
2022/10/20 10:09:56;;;;;;;18.67;8.13;;;14.50;84.30;;;;;;5091426;28;20381;-86
2022/10/20 10:12:24;;;;;;;13.00;7.55;;;14.50;84.50;;;;;;5091507;28;20032;-86
2022/10/20 10:14:53;;;;;;;15.65;8.90;;;14.50;84.60;;;;;;5091300;28;20077;-85
2022/10/20 10:17:29;;;;;;;19.80;8.63;;;14.60;84.70;;;;;;5091288;28;20028;-86
2022/10/20 10:19:55;;;;;;;15.23;8.30;;;14.60;84.90;;;;;;5090778;28;20085;-87
2022/10/20 10:22:21;;;;;;;17.13;8.00;;;14.60;84.80;;;;;;5057453;28;20029;-87
2022/10/20 10:24:48;;;;;;;18.42;8.50;;;14.60;84.50;;;;;;5057688;28;20028;-86
2022/10/20 10:27:29;;;;;;;19.45;8.43;;;14.70;84.50;;;;;;5091272;28;20021;-86
2022/10/20 10:30:15;;;;;;;11.95;7.72;;;14.60;84.60;;;;;;5091258;28;20020;-86
2022/10/20 10:32:48;;;;;;;13.07;7.75;;;14.60;84.60;;;;;;5090818;28;20035;-86
2022/10/20 10:35:35;;;;;;;15.02;8.65;;;14.60;84.20;;;;;;5074806;28;20355;-86
2022/10/20 10:38:01;;;;;;;18.48;7.88;;;14.60;84.30;;;;;;5090655;28;20032;-87
2022/10/20 10:41:22;;;;;;;14.25;8.27;;;14.60;84.40;;;;;;5074478;28;20027;-87
2022/10/20 10:43:58;;;;;;;18.80;8.38;;;14.60;84.60;;;;;;5069447;28;20039;-86
2022/10/20 10:46:50;;;;;;;13.40;7.65;;;14.70;84.90;;;;;;5092048;28;20036;-86
2022/10/20 10:49:29;;;;;;;15.90;8.48;;;14.70;84.70;;;;;;5090271;28;20036;-86
2022/10/20 10:52:10;;;;;;;20.00;8.52;;;14.60;84.80;;;;;;5091956;28;20438;-87
2022/10/20 10:54:57;;;;;;;16.45;8.30;;;14.70;84.90;;;;;;5090816;28;20116;-86
2022/10/20 10:57:31;;;;;;;20.73;8.10;;;14.60;85.40;;;;;;5090982;28;20024;-86
2022/10/20 11:00:06;;;;;;;14.45;8.32;;;14.60;85.40;;;;;;5090814;28;20047;-86
2022/10/20 11:02:37;;;;;;;15.95;7.53;;;14.50;85.60;;;;;;5091260;28;20016;-87
2022/10/20 11:05:09;;;;;;;15.88;7.97;;;14.50;85.80;;;;;;5103820;28;20047;-86
2022/10/20 11:07:35;;;;;;;18.02;7.80;;;14.50;86.00;;;;;;5112146;28;20392;-87
2022/10/20 11:10:14;;;;;;;14.43;8.20;;;14.50;86.30;;;;;;5097147;28;20119;-86
2022/10/20 11:12:58;;;;;;;16.60;8.57;;;14.50;86.20;;;;;;5097558;28;20361;-84
2022/10/20 11:15:49;;;;;;;17.25;9.13;;;14.60;86.40;;;;;;5117097;27;20135;-84
2022/10/20 11:18:41;;;;;;;17.33;8.82;;;14.50;86.70;;;;;;5118290;27;20177;-85
2022/10/20 11:21:47;;;;;;;19.67;9.32;;;14.50;86.60;;;;;;5136720;27;20016;-85
2022/10/20 11:24:25;;;;;;;15.23;8.80;;;14.60;87.30;;;;;;5053511;28;20536;-85
2022/10/20 11:26:55;;;;;;;18.05;9.45;;;14.60;87.00;;;;;;5112396;27;20031;-85
2022/10/20 11:29:21;;;;;;;14.95;8.50;;;14.60;87.90;;;;;;5118091;27;20027;-85
2022/10/20 11:32:13;;;;;;;15.10;8.18;;;14.50;88.00;;;;;;5117283;27;20385;-86
2022/10/20 11:35:00;;;;;;;19.35;9.32;;;14.50;89.00;;;;;;5117922;27;20027;-85
2022/10/20 11:37:48;;;;;;;18.02;8.65;;;14.60;88.40;;;;;;5117176;27;20031;-86
2022/10/20 11:40:23;;;;;;;17.25;8.73;;;14.60;88.40;;;;;;5118345;27;20035;-86
2022/10/20 11:43:19;;;;;;;16.08;8.48;;;14.50;89.20;;;;;;5135764;27;20011;-85
2022/10/20 11:45:53;;;;;;;17.13;9.18;;;14.50;89.60;;;;;;5117215;27;20084;-84
2022/10/20 11:48:45;;;;;;;17.83;9.48;;;14.50;89.90;;;;;;5117666;27;20106;-84
2022/10/20 11:51:29;;;;;;;16.25;8.80;;;14.50;90.70;;;;;;5117435;27;20027;-85
2022/10/20 11:54:25;;;;;;;18.40;9.18;;;14.40;90.50;;;;;;5117936;27;20019;-84
2022/10/20 11:57:17;;;;;;;16.77;8.38;;;14.40;90.60;;;;;;5117627;27;20027;-85
2022/10/20 11:59:49;;;;;;;19.67;9.43;;;14.40;90.80;;;;;;5117415;27;20544;-85
2022/10/20 12:02:24;;;;;;;21.75;9.07;;;14.40;90.80;;;;;;5136367;27;20045;-85
2022/10/20 12:05:23;;;;;;;18.23;9.55;;;14.40;90.80;;;;;;5117829;27;20373;-85
2022/10/20 12:07:54;;;;;;;22.50;8.88;;;14.40;90.90;;;;;;5117450;27;20028;-85
2022/10/20 12:10:30;;;;;;;16.95;9.70;;;14.40;91.00;;;;;;5117536;27;20019;-85
2022/10/20 12:13:23;;;;;;;17.73;9.35;;;14.50;91.20;;;;;;5117572;27;20556;-85
2022/10/20 12:15:51;;;;;;;16.23;8.68;;;14.50;91.30;;;;;;5136352;27;20031;-85
2022/10/20 12:18:29;;;;;;;21.52;9.90;;;14.50;91.10;;;;;;5099563;27;20035;-85
2022/10/20 12:21:01;;;;;;;17.88;9.45;;;14.60;91.80;;;;;;5116656;27;20600;-86
2022/10/20 12:23:42;;;;;;;18.80;8.82;;;14.60;92.00;;;;;;5100108;27;20019;-85
2022/10/20 12:26:33;;;;;;;18.75;8.65;;;14.60;92.10;;;;;;5116510;27;20088;-85
2022/10/20 12:29:00;;;;;;;18.05;8.95;;;14.60;92.60;;;;;;5135704;27;20069;-85
2022/10/20 12:32:03;;;;;;;19.02;9.82;;;14.70;92.20;;;;;;5135241;27;20030;-84
2022/10/20 12:34:39;;;;;;;17.00;9.93;;;14.70;92.50;;;;;;5117270;27;20038;-84
2022/10/20 12:37:19;;;;;;;21.38;8.98;;;14.70;92.40;;;;;;5116001;27;20034;-84
2022/10/20 12:39:48;;;;;;;19.63;10.18;;;14.70;92.50;;;;;;5116707;27;20401;-84
2022/10/20 12:42:21;;;;;;;22.58;10.55;;;14.80;92.30;;;;;;5100925;27;20019;-84
2022/10/20 12:44:47;;;;;;;20.63;9.98;;;14.80;92.40;;;;;;5117313;27;20072;-84
2022/10/20 12:47:31;;;;;;;23.67;9.65;;;14.80;92.50;;;;;;5100226;27;20055;-84
2022/10/20 12:50:24;;;;;;;17.45;9.35;;;14.80;92.60;;;;;;5116474;27;20038;-84
2022/10/20 12:52:50;;;;;;;17.70;8.93;;;14.80;92.80;;;;;;5115991;27;20019;-84
2022/10/20 12:55:29;;;;;;;19.50;10.57;;;14.80;92.70;;;;;;5082481;27;20027;-84
2022/10/20 12:58:26;;;;;;;19.65;9.95;;;14.90;92.80;;;;;;5115928;27;20480;-84
2022/10/20 13:00:51;;;;;;;21.35;10.00;;;14.90;92.80;;;;;;5116364;27;20049;-84